createdAt,value
2018-04-16T00:01:21.713Z,99243.52
2018-04-16T00:03:48.163Z,99234.55
2018-04-16T00:06:15.223Z,99233.83
2018-04-16T00:08:42.384Z,99238.81
2018-04-16T00:11:08.720Z,99234.05
2018-04-16T00:13:34.996Z,99231.73
2018-04-16T00:16:01.314Z,99231.55
2018-04-16T00:18:27.642Z,99227.62
2018-04-16T00:20:53.977Z,99223.50
2018-04-16T00:23:20.300Z,99223.46
2018-04-16T00:25:46.635Z,99226.37
2018-04-16T00:28:12.990Z,99225.45
2018-04-16T00:30:39.331Z,99237.70
2018-04-16T00:33:11.697Z,99229.61
2018-04-16T00:35:44.168Z,99226.73
2018-04-16T00:38:16.622Z,99240.16
2018-04-16T00:40:48.952Z,99246.88
2018-04-16T00:43:21.610Z,99248.02
2018-04-16T00:45:54.146Z,99248.17
2018-04-16T00:48:26.686Z,99241.54
2018-04-16T00:50:59.159Z,99241.67
2018-04-16T00:53:50.320Z,99242.59
2018-04-16T00:56:22.691Z,99249.39
2018-04-16T00:58:55.159Z,99237.30
2018-04-16T01:04:39.144Z,99240.77
2018-04-16T01:07:11.603Z,99241.04
2018-04-16T01:09:44.057Z,99237.03
2018-04-16T01:12:16.669Z,99238.86
2018-04-16T01:14:49.071Z,99236.66
2018-04-16T01:17:22.210Z,99234.41
2018-04-16T01:19:54.739Z,99237.16
2018-04-16T01:22:27.903Z,99231.80
2018-04-16T01:25:00.425Z,99229.56
2018-04-16T01:27:32.934Z,99239.39
2018-04-16T01:30:05.287Z,99231.83
2018-04-16T01:32:37.818Z,99237.53
2018-04-16T01:35:10.262Z,99235.69
2018-04-16T01:37:42.631Z,99235.95
2018-04-16T01:40:15.098Z,99233.14
2018-04-16T01:42:47.635Z,99231.57
2018-04-16T01:45:20.110Z,99229.93
2018-04-16T01:47:53.219Z,99229.76
2018-04-16T01:50:25.859Z,99229.88
2018-04-16T01:52:58.285Z,99227.62
2018-04-16T01:55:30.761Z,99226.28
2018-04-16T01:58:03.266Z,99226.38
2018-04-16T02:00:35.789Z,99220.02
2018-04-16T02:03:09.138Z,99218.47
2018-04-16T02:05:41.515Z,99223.58
2018-04-16T02:08:13.965Z,99223.64
2018-04-16T02:10:46.446Z,99226.44
2018-04-16T02:13:18.791Z,99230.91
2018-04-16T02:15:51.404Z,99230.75
2018-04-16T02:18:23.870Z,99233.63
2018-04-16T02:20:56.381Z,99236.35
2018-04-16T02:23:28.778Z,99238.41
2018-04-16T02:26:01.978Z,99244.28
2018-04-16T02:28:35.292Z,99239.81
2018-04-16T02:31:07.770Z,99237.84
2018-04-16T02:33:40.229Z,99240.15
2018-04-16T02:36:12.795Z,99241.21
2018-04-16T02:38:46.144Z,99243.38
2018-04-16T02:41:18.661Z,99246.86
2018-04-16T02:43:51.999Z,99255.03
2018-04-16T02:46:24.437Z,99261.87
2018-04-16T02:48:57.645Z,99256.86
2018-04-16T02:51:30.057Z,99248.86
2018-04-16T02:54:02.660Z,99255.91
2018-04-16T02:59:36.948Z,99259.31
2018-04-16T03:02:09.429Z,99263.76
2018-04-16T03:04:41.797Z,99254.73
2018-04-16T03:07:14.290Z,99256.80
2018-04-16T03:09:46.797Z,99259.28
2018-04-16T03:12:19.222Z,99251.80
2018-04-16T03:14:51.755Z,99252.94
2018-04-16T03:17:24.316Z,99257.96
2018-04-16T03:19:56.692Z,99246.34
2018-04-16T03:22:29.219Z,99253.36
2018-04-16T03:25:01.738Z,99256.58
2018-04-16T03:27:35.009Z,99259.49
2018-04-16T03:30:07.392Z,99263.05
2018-04-16T03:32:39.874Z,99261.72
2018-04-16T03:35:12.325Z,99255.70
2018-04-16T03:37:45.478Z,99266.00
2018-04-16T03:40:18.560Z,99266.67
2018-04-16T03:42:50.975Z,99263.85
2018-04-16T03:45:23.350Z,99262.95
2018-04-16T03:47:55.959Z,99266.34
2018-04-16T03:50:28.375Z,99264.56
2018-04-16T03:53:00.791Z,99259.77
2018-04-16T03:55:29.129Z,99261.25
2018-04-16T03:57:55.427Z,99264.55
2018-04-16T04:00:21.750Z,99259.00
2018-04-16T04:02:48.038Z,99262.55
2018-04-16T04:05:14.388Z,99260.57
2018-04-16T04:07:40.648Z,99260.55
2018-04-16T04:10:07.040Z,99260.58
2018-04-16T04:12:33.346Z,99268.20
2018-04-16T04:14:59.621Z,99272.14
2018-04-16T04:17:25.951Z,99276.55
2018-04-16T04:19:52.274Z,99277.72
2018-04-16T04:22:18.546Z,99276.30
2018-04-16T04:25:04.326Z,99282.73
2018-04-16T04:27:49.300Z,99266.38
2018-04-16T04:30:28.961Z,99271.41
2018-04-16T04:32:55.991Z,99273.19
2018-04-16T04:35:22.292Z,99279.46
2018-04-16T04:37:48.606Z,99280.91
2018-04-16T04:40:14.934Z,99278.27
2018-04-16T04:42:41.266Z,99276.86
2018-04-16T04:45:07.563Z,99275.02
2018-04-16T04:47:34.791Z,99284.55
2018-04-16T04:50:01.129Z,99282.31
2018-04-16T04:52:27.395Z,99293.97
2018-04-16T04:54:54.785Z,99298.87
2018-04-16T04:57:21.120Z,99304.17
2018-04-16T04:59:47.386Z,99324.08
2018-04-16T05:02:21.567Z,99336.19
2018-04-16T05:04:47.910Z,99341.25
2018-04-16T05:07:14.233Z,99333.41
2018-04-16T05:09:40.517Z,99323.55
2018-04-16T05:12:06.847Z,99308.58
2018-04-16T05:14:33.912Z,99307.65
2018-04-16T05:17:00.223Z,99326.24
2018-04-16T05:19:26.516Z,99334.92
2018-04-16T05:21:52.833Z,99336.38
2018-04-16T05:24:19.157Z,99325.41
2018-04-16T05:26:45.494Z,99322.48
2018-04-16T05:29:11.821Z,99322.17
2018-04-16T05:31:38.143Z,99334.27
2018-04-16T05:34:04.411Z,99351.16
2018-04-16T05:36:30.740Z,99341.11
2018-04-16T05:38:57.102Z,99353.81
2018-04-16T05:41:23.916Z,99342.56
2018-04-16T05:43:50.245Z,99348.52
2018-04-16T05:46:16.503Z,99344.56
2018-04-16T05:48:42.785Z,99348.06
2018-04-16T05:51:09.063Z,99351.52
2018-04-16T05:53:35.700Z,99361.20
2018-04-16T05:56:02.046Z,99359.38
2018-04-16T05:58:28.381Z,99360.41
2018-04-16T06:00:54.767Z,99361.70
2018-04-16T06:03:21.061Z,99362.88
2018-04-16T06:05:47.385Z,99371.15
2018-04-16T06:08:13.659Z,99371.86
2018-04-16T06:10:40.000Z,99376.35
2018-04-16T06:13:07.042Z,99383.58
2018-04-16T06:15:33.392Z,99372.25
2018-04-16T06:17:59.775Z,99386.29
2018-04-16T06:20:26.088Z,99384.65
2018-04-16T06:22:52.445Z,99390.25
2018-04-16T06:25:18.801Z,99389.83
2018-04-16T06:27:45.185Z,99381.42
2018-04-16T06:30:11.492Z,99385.78
2018-04-16T06:32:37.779Z,99389.94
2018-04-16T06:35:04.111Z,99394.86
2018-04-16T06:37:30.453Z,99397.94
2018-04-16T06:39:56.767Z,99389.05
2018-04-16T06:42:23.377Z,99407.39
2018-04-16T06:44:49.675Z,99405.51
2018-04-16T06:47:16.037Z,99413.33
2018-04-16T06:49:42.413Z,99418.38
2018-04-16T06:52:08.713Z,99420.06
2018-04-16T06:54:35.000Z,99430.02
2018-04-16T06:57:02.041Z,99422.61
2018-04-16T06:59:29.058Z,99417.61
2018-04-16T07:01:55.328Z,99422.66
2018-04-16T07:04:21.702Z,99421.31
2018-04-16T07:06:48.083Z,99429.18
2018-04-16T07:09:15.115Z,99433.02
2018-04-16T07:11:42.170Z,99431.94
2018-04-16T07:14:08.450Z,99433.86
2018-04-16T07:16:34.757Z,99437.08
2018-04-16T07:19:01.065Z,99439.88
2018-04-16T07:21:28.134Z,99440.88
2018-04-16T07:23:54.442Z,99439.98
2018-04-16T07:26:21.469Z,99434.98
2018-04-16T07:28:47.815Z,99434.41
2018-04-16T07:31:14.116Z,99436.84
2018-04-16T07:33:40.490Z,99437.47
2018-04-16T07:36:06.780Z,99438.02
2018-04-16T07:38:33.035Z,99438.05
2018-04-16T07:40:59.328Z,99442.54
2018-04-16T07:43:25.618Z,99441.93
2018-04-16T07:45:52.704Z,99449.31
2018-04-16T07:48:19.086Z,99450.21
2018-04-16T07:50:46.149Z,99463.03
2018-04-16T07:53:13.188Z,99459.25
2018-04-16T07:55:40.230Z,99467.65
2018-04-16T07:58:07.269Z,99460.44
2018-04-16T08:00:33.635Z,99466.41
2018-04-16T08:02:59.926Z,99469.84
2018-04-16T08:05:26.179Z,99467.50
2018-04-16T08:07:52.486Z,99468.86
2018-04-16T08:10:18.767Z,99465.50
2018-04-16T08:12:45.018Z,99470.38
2018-04-16T08:15:11.275Z,99467.98
2018-04-16T08:17:37.645Z,99468.70
2018-04-16T08:20:04.713Z,99470.45
2018-04-16T08:22:31.023Z,99478.16
2018-04-16T08:24:57.289Z,99481.09
2018-04-16T08:27:23.547Z,99486.08
2018-04-16T08:29:49.946Z,99483.06
2018-04-16T08:32:17.288Z,99488.34
2018-04-16T08:34:43.598Z,99495.19
2018-04-16T08:37:09.894Z,99484.83
2018-04-16T08:39:36.219Z,99486.77
2018-04-16T08:42:02.539Z,99485.89
2018-04-16T08:44:28.850Z,99484.46
2018-04-16T08:46:55.150Z,99484.69
2018-04-16T08:49:21.457Z,99489.61
2018-04-16T08:51:47.765Z,99491.19
2018-04-16T08:54:14.041Z,99494.16
2018-04-16T08:56:41.128Z,99497.30
2018-04-16T08:59:07.405Z,99496.70
2018-04-16T09:01:34.487Z,99497.60
2018-04-16T09:04:01.461Z,99508.81
2018-04-16T09:06:27.794Z,99506.48
2018-04-16T09:08:54.146Z,99509.09
2018-04-16T09:11:20.462Z,99511.17
2018-04-16T09:13:46.855Z,99517.27
2018-04-16T09:16:13.139Z,99511.95
2018-04-16T09:18:39.443Z,99509.43
2018-04-16T09:21:05.786Z,99510.26
2018-04-16T09:23:32.072Z,99508.41
2018-04-16T09:25:58.367Z,99507.88
2018-04-16T09:28:24.665Z,99516.02
2018-04-16T09:30:51.012Z,99507.23
2018-04-16T09:33:17.328Z,99500.20
2018-04-16T09:35:43.606Z,99500.66
2018-04-16T09:38:10.655Z,99503.12
2018-04-16T09:40:37.703Z,99497.70
2018-04-16T09:43:04.712Z,99499.03
2018-04-16T09:45:31.035Z,99501.94
2018-04-16T09:47:57.345Z,99502.93
2018-04-16T09:50:23.685Z,99502.07
2018-04-16T09:52:50.729Z,99499.49
2018-04-16T09:55:17.161Z,99508.50
2018-04-16T09:57:43.488Z,99511.41
2018-04-16T10:00:09.765Z,99510.27
2018-04-16T10:02:36.091Z,99513.93
2018-04-16T10:05:02.425Z,99522.56
2018-04-16T10:07:28.738Z,99525.94
2018-04-16T10:09:55.017Z,99528.61
2018-04-16T10:12:22.116Z,99525.14
2018-04-16T10:14:48.422Z,99532.09
2018-04-16T10:17:14.755Z,99526.31
2018-04-16T10:19:41.106Z,99536.73
2018-04-16T10:22:07.442Z,99530.33
2018-04-16T10:24:33.743Z,99527.59
2018-04-16T10:27:00.071Z,99529.21
2018-04-16T10:29:26.366Z,99522.91
2018-04-16T10:31:52.664Z,99528.97
2018-04-16T10:34:19.047Z,99532.36
2018-04-16T10:36:45.454Z,99518.92
2018-04-16T10:39:12.850Z,99519.21
2018-04-16T10:41:39.116Z,99512.14
2018-04-16T10:44:05.421Z,99515.17
2018-04-16T10:46:31.752Z,99521.06
2018-04-16T10:48:58.079Z,99526.52
2018-04-16T10:51:24.400Z,99524.53
2018-04-16T10:53:50.700Z,99524.98
2018-04-16T11:02:44.715Z,99528.48
2018-04-16T11:05:11.061Z,99531.26
2018-04-16T11:07:37.358Z,99531.94
2018-04-16T11:10:03.653Z,99534.77
2018-04-16T11:12:29.988Z,99531.11
2018-04-16T11:14:56.254Z,99537.93
2018-04-16T11:17:23.455Z,99539.53
2018-04-16T11:19:50.476Z,99545.80
2018-04-16T11:22:16.737Z,99549.20
2018-04-16T11:27:53.739Z,99549.45
2018-04-16T11:48:21.225Z,99566.98
2018-04-16T11:50:47.568Z,99569.05
2018-04-16T11:53:13.898Z,99575.85
2018-04-16T11:55:40.222Z,99576.27
2018-04-16T11:58:06.505Z,99569.44
2018-04-16T12:00:32.846Z,99581.25
2018-04-16T12:02:59.143Z,99587.18
2018-04-16T12:05:39.449Z,99579.86
2018-04-16T12:08:06.523Z,99580.13
2018-04-16T12:10:32.801Z,99589.73
2018-04-16T12:12:59.230Z,99593.12
2018-04-16T12:15:25.580Z,99592.04
2018-04-16T12:17:51.895Z,99596.04
2018-04-16T12:20:18.232Z,99594.76
2018-04-16T12:22:44.516Z,99599.78
2018-04-16T12:25:10.856Z,99598.09
2018-04-16T12:27:37.148Z,99598.16
2018-04-16T12:30:04.193Z,99609.28
2018-04-16T12:32:31.209Z,99605.91
2018-04-16T12:35:05.444Z,99607.53
2018-04-16T12:37:32.506Z,99610.67
2018-04-16T12:39:59.512Z,99607.01
2018-04-16T12:42:25.875Z,99610.33
2018-04-16T12:44:53.003Z,99608.29
2018-04-16T12:47:19.303Z,99613.11
2018-04-16T12:49:45.641Z,99612.69
2018-04-16T12:52:11.954Z,99618.27
2018-04-16T12:54:38.249Z,99616.94
2018-04-16T12:57:05.296Z,99621.47
2018-04-16T12:59:32.343Z,99625.37
2018-04-16T13:01:58.659Z,99622.28
2018-04-16T13:04:24.939Z,99623.89
2018-04-16T13:06:51.235Z,99624.93
2018-04-16T13:09:17.508Z,99615.83
2018-04-16T13:11:43.764Z,99628.55
2018-04-16T13:14:10.110Z,99627.66
2018-04-16T13:16:36.430Z,99633.23
2018-04-16T13:19:02.683Z,99632.18
2018-04-16T13:21:28.995Z,99630.16
2018-04-16T13:23:55.355Z,99637.98
2018-04-16T13:26:22.380Z,99639.77
2018-04-16T13:28:48.726Z,99645.34
2018-04-16T13:31:15.142Z,99649.29
2018-04-16T13:33:41.421Z,99640.59
2018-04-16T13:36:07.819Z,99649.70
2018-04-16T13:38:34.194Z,99643.42
2018-04-16T13:41:00.529Z,99652.80
2018-04-16T13:43:26.800Z,99655.42
2018-04-16T13:45:53.115Z,99655.22
2018-04-16T13:48:19.375Z,99664.06
2018-04-16T13:50:45.681Z,99664.70
2018-04-16T13:53:12.007Z,99663.91
2018-04-16T13:55:38.361Z,99663.49
2018-04-16T13:58:04.670Z,99665.30
2018-04-16T14:00:31.010Z,99670.45
2018-04-16T14:02:57.372Z,99667.59
2018-04-16T14:05:24.484Z,99674.72
2018-04-16T14:07:50.815Z,99679.59
2018-04-16T14:10:17.195Z,99678.70
2018-04-16T14:12:44.265Z,99678.58
2018-04-16T14:15:10.677Z,99682.16
2018-04-16T14:17:38.759Z,99690.41
2018-04-16T14:20:05.089Z,99684.00
2018-04-16T14:22:32.178Z,99691.83
2018-04-16T14:24:58.466Z,99695.33
2018-04-16T14:27:25.517Z,99694.55
2018-04-16T14:29:51.881Z,99691.41
2018-04-16T14:32:18.251Z,99703.98
2018-04-16T14:34:44.568Z,99704.43
2018-04-16T14:37:10.903Z,99703.13
2018-04-16T14:39:37.234Z,99705.84
2018-04-16T14:42:03.670Z,99697.25
2018-04-16T14:44:29.979Z,99704.23
2018-04-16T14:46:56.295Z,99709.64
2018-04-16T14:49:22.570Z,99715.03
2018-04-16T14:51:48.896Z,99716.96
2018-04-16T14:54:16.022Z,99712.99
2018-04-16T14:56:42.400Z,99717.55
2018-04-16T14:59:08.714Z,99720.65
2018-04-16T15:01:35.137Z,99721.00
2018-04-16T15:04:01.483Z,99724.22
2018-04-16T15:06:27.812Z,99720.67
2018-04-16T15:08:54.156Z,99717.99
2018-04-16T15:11:20.478Z,99731.11
2018-04-16T15:13:46.773Z,99729.42
2018-04-16T15:16:13.068Z,99742.47
2018-04-16T15:18:39.404Z,99739.82
2018-04-16T15:21:05.841Z,99736.66
2018-04-16T15:23:32.181Z,99737.44
2018-04-16T15:25:58.537Z,99744.88
2018-04-16T15:28:24.830Z,99739.62
2018-04-16T15:30:51.255Z,99745.20
2018-04-16T15:33:17.630Z,99747.98
2018-04-16T15:35:44.376Z,99742.29
2018-04-16T15:38:10.673Z,99748.36
2018-04-16T15:40:37.017Z,99745.11
2018-04-16T15:43:04.140Z,99757.61
2018-04-16T15:45:30.453Z,99747.88
2018-04-16T15:47:57.689Z,99747.25
2018-04-16T15:50:24.001Z,99748.09
2018-04-16T15:52:50.297Z,99759.11
2018-04-16T15:55:16.644Z,99750.77
2018-04-16T15:57:42.954Z,99760.84
2018-04-16T16:00:09.236Z,99758.89
2018-04-16T16:02:35.588Z,99764.87
2018-04-16T16:05:02.684Z,99766.20
2018-04-16T16:07:28.974Z,99764.56
2018-04-16T16:09:56.074Z,99772.61
2018-04-16T16:12:22.453Z,99773.65
2018-04-16T16:14:48.766Z,99773.95
2018-04-16T16:17:18.558Z,99777.10
2018-04-16T16:19:44.883Z,99778.17
2018-04-16T16:22:11.225Z,99774.77
2018-04-16T16:24:37.640Z,99781.08
2018-04-16T16:27:04.153Z,99782.03
2018-04-16T16:29:31.380Z,99786.72
2018-04-16T16:31:58.447Z,99785.32
2018-04-16T16:34:24.862Z,99790.67
2018-04-16T16:36:52.070Z,99798.67
2018-04-16T16:39:18.463Z,99801.67
2018-04-16T16:41:44.831Z,99804.03
2018-04-16T16:44:11.192Z,99799.53
2018-04-16T16:46:37.614Z,99801.05
2018-04-16T16:49:04.009Z,99801.19
2018-04-16T16:51:30.796Z,99796.83
2018-04-16T16:53:57.117Z,99801.00
2018-04-16T16:56:23.391Z,99803.96
2018-04-16T16:58:50.483Z,99815.03
2018-04-16T17:01:16.818Z,99818.40
2018-04-16T17:03:43.216Z,99818.61
2018-04-16T17:06:09.634Z,99822.97
2018-04-16T17:08:35.981Z,99821.20
2018-04-16T17:11:02.365Z,99824.17
2018-04-16T17:13:28.809Z,99830.31
2018-04-16T17:15:55.606Z,99835.73
2018-04-16T17:18:21.958Z,99837.66
2018-04-16T17:20:48.246Z,99840.64
2018-04-16T17:23:15.564Z,99838.08
2018-04-16T17:25:41.916Z,99837.61
2018-04-16T17:28:08.971Z,99841.95
2018-04-16T17:30:36.021Z,99845.98
2018-04-16T17:33:03.041Z,99846.81
2018-04-16T17:35:29.353Z,99852.30
2018-04-16T17:37:55.659Z,99855.84
2018-04-16T17:40:22.016Z,99851.17
2018-04-16T17:42:48.310Z,99859.93
2018-04-16T17:45:14.616Z,99864.93
2018-04-16T17:47:41.744Z,99868.56
2018-04-16T17:50:08.020Z,99869.58
2018-04-16T17:52:34.331Z,99879.20
2018-04-16T17:55:01.450Z,99886.87
2018-04-16T17:57:27.698Z,99887.40
2018-04-16T17:59:54.727Z,99888.46
2018-04-16T18:02:21.142Z,99890.04
2018-04-16T18:04:48.234Z,99889.59
2018-04-16T18:07:15.320Z,99894.50
2018-04-16T18:09:41.723Z,99904.38
2018-04-16T18:12:08.755Z,99914.91
2018-04-16T18:14:35.905Z,99910.27
2018-04-16T18:17:02.297Z,99916.80
2018-04-16T18:19:28.625Z,99921.89
2018-04-16T18:21:55.039Z,99922.22
2018-04-16T18:24:21.440Z,99925.20
2018-04-16T18:26:48.446Z,99931.45
2018-04-16T18:29:15.226Z,99935.06
2018-04-16T18:31:42.326Z,99938.73
2018-04-16T18:34:08.668Z,99938.95
2018-04-16T18:36:35.754Z,99947.30
2018-04-16T18:39:02.850Z,99946.14
2018-04-16T18:41:29.177Z,99953.22
2018-04-16T18:43:55.516Z,99958.19
2018-04-16T18:46:21.847Z,99962.64
2018-04-16T18:48:48.137Z,99965.99
2018-04-16T18:51:15.199Z,99968.77
2018-04-16T18:53:41.549Z,99967.18
2018-04-16T18:56:07.939Z,99970.36
2018-04-16T18:58:34.319Z,99981.42
2018-04-16T19:01:00.614Z,99983.42
2018-04-16T19:03:27.986Z,99987.53
2018-04-16T19:05:54.325Z,99992.39
2018-04-16T19:08:20.687Z,99994.95
2018-04-16T19:10:47.287Z,99988.98
2018-04-16T19:13:13.684Z,99987.66
2018-04-16T19:15:40.066Z,99988.26
2018-04-16T19:18:06.549Z,99995.20
2018-04-16T19:20:39.088Z,99995.44
2018-04-16T19:23:05.385Z,99997.50
2018-04-16T19:25:32.533Z,99991.87
2018-04-16T19:28:05.083Z,99991.27
2018-04-16T19:30:31.422Z,99993.89
2018-04-16T19:33:04.912Z,99996.81
2018-04-16T19:35:31.993Z,100002.81
2018-04-16T19:37:59.148Z,100008.41
2018-04-16T19:40:25.869Z,100011.38
2018-04-16T19:42:52.271Z,100010.08
2018-04-16T19:45:18.681Z,100013.22
2018-04-16T19:47:44.995Z,100012.88
2018-04-16T19:50:11.324Z,100008.49
2018-04-16T19:52:37.666Z,100011.40
2018-04-16T19:55:04.031Z,100016.41
2018-04-16T19:57:36.613Z,100021.14
2018-04-16T20:00:02.963Z,100015.64
2018-04-16T20:02:35.411Z,100024.13
2018-04-16T20:05:01.728Z,100028.77
2018-04-16T20:07:28.111Z,100029.45
2018-04-16T20:09:55.195Z,100022.52
2018-04-16T20:12:21.617Z,100027.38
2018-04-16T20:14:48.037Z,100024.36
2018-04-16T20:17:16.035Z,100024.08
2018-04-16T20:19:42.370Z,100020.19
2018-04-16T20:22:08.711Z,100016.09
2018-04-16T20:24:35.056Z,100024.27
2018-04-16T20:27:01.365Z,100026.65
2018-04-16T20:29:27.687Z,100028.77
2018-04-16T20:31:54.011Z,100023.75
2018-04-16T20:34:20.356Z,100025.81
2018-04-16T20:36:46.640Z,100024.91
2018-04-16T20:39:12.968Z,100031.53
2018-04-16T20:41:39.374Z,100038.27
2018-04-16T20:44:05.763Z,100038.33
2018-04-16T20:46:32.181Z,100042.30
2018-04-16T20:48:59.795Z,100041.33
2018-04-16T20:51:26.176Z,100039.84
2018-04-16T20:53:54.211Z,100051.23
2018-04-16T20:56:20.586Z,100061.34
2018-04-16T20:58:46.903Z,100060.85
2018-04-16T21:01:13.242Z,100062.37
2018-04-16T21:03:40.320Z,100062.84
2018-04-16T21:06:06.656Z,100063.80
2018-04-16T21:08:32.915Z,100066.95
2018-04-16T21:10:59.167Z,100067.63
2018-04-16T21:13:26.375Z,100077.42
2018-04-16T21:15:52.723Z,100073.99
2018-04-16T21:18:19.014Z,100075.95
2018-04-16T21:20:45.426Z,100066.18
2018-04-16T21:23:12.588Z,100073.52
2018-04-16T21:25:38.919Z,100077.52
2018-04-16T21:28:05.221Z,100081.22
2018-04-16T21:30:31.554Z,100084.89
2018-04-16T21:32:57.914Z,100089.27
2018-04-16T21:35:24.387Z,100093.61
2018-04-16T21:37:50.746Z,100097.75
2018-04-16T21:40:17.055Z,100099.16
2018-04-16T21:42:43.331Z,100102.50
2018-04-16T21:45:09.683Z,100100.77
2018-04-16T21:47:35.968Z,100109.19
2018-04-16T21:50:02.316Z,100119.95
2018-04-16T21:52:28.726Z,100115.20
2018-04-16T21:54:55.125Z,100120.59
2018-04-16T21:57:21.447Z,100124.96
2018-04-16T21:59:48.710Z,100134.17
2018-04-16T22:02:15.077Z,100139.63
2018-04-16T22:04:41.327Z,100143.64
2018-04-16T22:07:08.418Z,100144.63
2018-04-16T22:09:34.712Z,100142.39
2018-04-16T22:12:01.729Z,100150.58
2018-04-16T22:14:28.027Z,100155.23
2018-04-16T22:16:54.319Z,100153.97
2018-04-16T22:19:21.370Z,100157.04
2018-04-16T22:21:48.489Z,100155.36
2018-04-16T22:24:14.767Z,100161.41
2018-04-16T22:26:41.126Z,100156.89
2018-04-16T22:29:07.474Z,100159.84
2018-04-16T22:31:33.868Z,100160.62
2018-04-16T22:34:00.283Z,100173.13
2018-04-16T22:36:27.357Z,100170.34
2018-04-16T22:38:53.626Z,100172.20
2018-04-16T22:41:19.908Z,100179.68
2018-04-16T22:43:46.236Z,100171.83
2018-04-16T22:46:12.628Z,100173.36
2018-04-16T22:48:39.689Z,100180.90
2018-04-16T22:51:06.108Z,100185.28
2018-04-16T22:53:32.523Z,100192.87
2018-04-16T22:55:59.834Z,100189.80
2018-04-16T22:58:26.131Z,100196.34
2018-04-16T23:00:52.442Z,100195.98
2018-04-16T23:03:19.456Z,100200.03
2018-04-16T23:05:45.847Z,100202.22
2018-04-16T23:08:12.205Z,100198.72
2018-04-16T23:10:38.502Z,100207.88
2018-04-16T23:13:04.818Z,100205.02
2018-04-16T23:15:31.218Z,100205.31
2018-04-16T23:17:57.645Z,100210.43
2018-04-16T23:20:24.049Z,100219.30
2018-04-16T23:22:51.103Z,100217.83
2018-04-16T23:25:17.420Z,100224.06
2018-04-16T23:27:44.434Z,100223.11
2018-04-16T23:30:17.813Z,100220.05
2018-04-16T23:32:44.067Z,100227.59
2018-04-16T23:35:10.389Z,100227.18
2018-04-16T23:37:36.673Z,100233.14
2018-04-16T23:40:03.700Z,100241.66
2018-04-16T23:42:29.997Z,100246.08
2018-04-16T23:44:56.252Z,100248.17
2018-04-16T23:47:22.572Z,100246.16
2018-04-16T23:49:48.833Z,100245.14
2018-04-16T23:52:15.895Z,100253.77
2018-04-16T23:54:42.215Z,100247.48
2018-04-16T23:57:09.226Z,100252.88
2018-04-16T23:59:35.480Z,100251.95
